sensor_id;sensor_type;location;lat;lon;timestamp;P1;durP1;ratioP1;P2;durP2;ratioP2
53652;SDS011;39553;52.954;5.932;2022-08-25T00:01:37;34.20;;;24.27;;
53652;SDS011;39553;52.954;5.932;2022-08-25T00:04:10;28.10;;;23.40;;
53652;SDS011;39553;52.954;5.932;2022-08-25T00:06:39;33.55;;;25.65;;
53652;SDS011;39553;52.954;5.932;2022-08-25T00:09:06;29.23;;;23.92;;
53652;SDS011;39553;52.954;5.932;2022-08-25T00:11:33;31.50;;;24.08;;
53652;SDS011;39553;52.954;5.932;2022-08-25T00:14:02;33.03;;;24.20;;
53652;SDS011;39553;52.954;5.932;2022-08-25T00:16:33;32.20;;;22.75;;
53652;SDS011;39553;52.954;5.932;2022-08-25T00:19:00;29.52;;;22.95;;
53652;SDS011;39553;52.954;5.932;2022-08-25T00:21:30;29.55;;;23.30;;
53652;SDS011;39553;52.954;5.932;2022-08-25T00:23:56;31.65;;;23.75;;
53652;SDS011;39553;52.954;5.932;2022-08-25T00:26:22;30.52;;;23.30;;
53652;SDS011;39553;52.954;5.932;2022-08-25T00:28:48;28.77;;;22.60;;
53652;SDS011;39553;52.954;5.932;2022-08-25T00:31:16;29.38;;;23.52;;
53652;SDS011;39553;52.954;5.932;2022-08-25T00:33:44;28.98;;;23.70;;
53652;SDS011;39553;52.954;5.932;2022-08-25T00:36:11;30.80;;;24.88;;
53652;SDS011;39553;52.954;5.932;2022-08-25T00:38:38;32.85;;;24.77;;
53652;SDS011;39553;52.954;5.932;2022-08-25T00:41:06;32.70;;;24.90;;
53652;SDS011;39553;52.954;5.932;2022-08-25T00:46:19;28.05;;;23.77;;
53652;SDS011;39553;52.954;5.932;2022-08-25T00:48:48;29.65;;;23.17;;
53652;SDS011;39553;52.954;5.932;2022-08-25T00:51:18;30.88;;;24.38;;
53652;SDS011;39553;52.954;5.932;2022-08-25T00:53:49;30.20;;;23.35;;
53652;SDS011;39553;52.954;5.932;2022-08-25T00:56:15;34.10;;;23.75;;
53652;SDS011;39553;52.954;5.932;2022-08-25T00:58:42;31.88;;;22.77;;
53652;SDS011;39553;52.954;5.932;2022-08-25T01:01:08;28.33;;;23.75;;
53652;SDS011;39553;52.954;5.932;2022-08-25T01:03:35;30.15;;;23.75;;
53652;SDS011;39553;52.954;5.932;2022-08-25T01:06:01;30.65;;;23.75;;
53652;SDS011;39553;52.954;5.932;2022-08-25T01:08:28;33.50;;;24.30;;
53652;SDS011;39553;52.954;5.932;2022-08-25T01:10:57;31.75;;;24.30;;
53652;SDS011;39553;52.954;5.932;2022-08-25T01:13:28;27.75;;;22.48;;
53652;SDS011;39553;52.954;5.932;2022-08-25T01:16:04;28.15;;;22.45;;
53652;SDS011;39553;52.954;5.932;2022-08-25T01:18:41;31.23;;;22.88;;
53652;SDS011;39553;52.954;5.932;2022-08-25T01:21:16;28.80;;;21.17;;
53652;SDS011;39553;52.954;5.932;2022-08-25T01:23:44;31.55;;;22.00;;
53652;SDS011;39553;52.954;5.932;2022-08-25T01:26:12;26.63;;;21.08;;
53652;SDS011;39553;52.954;5.932;2022-08-25T01:28:42;28.08;;;20.08;;
53652;SDS011;39553;52.954;5.932;2022-08-25T01:31:28;28.05;;;19.63;;
53652;SDS011;39553;52.954;5.932;2022-08-25T01:33:55;27.90;;;19.50;;
53652;SDS011;39553;52.954;5.932;2022-08-25T01:36:23;24.48;;;18.75;;
53652;SDS011;39553;52.954;5.932;2022-08-25T01:38:49;21.92;;;18.27;;
53652;SDS011;39553;52.954;5.932;2022-08-25T01:41:16;24.45;;;17.20;;
53652;SDS011;39553;52.954;5.932;2022-08-25T01:44:12;19.10;;;15.27;;
53652;SDS011;39553;52.954;5.932;2022-08-25T01:46:39;18.15;;;13.65;;
53652;SDS011;39553;52.954;5.932;2022-08-25T01:49:06;16.33;;;12.48;;
53652;SDS011;39553;52.954;5.932;2022-08-25T01:51:33;19.50;;;12.93;;
53652;SDS011;39553;52.954;5.932;2022-08-25T01:54:08;14.35;;;11.20;;
53652;SDS011;39553;52.954;5.932;2022-08-25T01:56:34;16.40;;;9.40;;
53652;SDS011;39553;52.954;5.932;2022-08-25T01:59:00;12.45;;;11.07;;
53652;SDS011;39553;52.954;5.932;2022-08-25T02:01:26;9.95;;;8.07;;
53652;SDS011;39553;52.954;5.932;2022-08-25T02:03:52;11.70;;;9.60;;
53652;SDS011;39553;52.954;5.932;2022-08-25T02:06:22;14.95;;;7.82;;
53652;SDS011;39553;52.954;5.932;2022-08-25T02:08:52;10.27;;;6.18;;
53652;SDS011;39553;52.954;5.932;2022-08-25T02:11:19;11.18;;;6.72;;
53652;SDS011;39553;52.954;5.932;2022-08-25T02:13:47;11.55;;;5.50;;
53652;SDS011;39553;52.954;5.932;2022-08-25T02:16:15;8.82;;;5.70;;
53652;SDS011;39553;52.954;5.932;2022-08-25T02:18:45;9.18;;;6.40;;
53652;SDS011;39553;52.954;5.932;2022-08-25T02:21:11;13.38;;;5.57;;
53652;SDS011;39553;52.954;5.932;2022-08-25T02:23:38;8.07;;;4.95;;
53652;SDS011;39553;52.954;5.932;2022-08-25T02:26:06;9.30;;;5.57;;
53652;SDS011;39553;52.954;5.932;2022-08-25T02:28:34;6.75;;;5.10;;
53652;SDS011;39553;52.954;5.932;2022-08-25T02:31:01;5.50;;;4.38;;
53652;SDS011;39553;52.954;5.932;2022-08-25T02:33:30;7.57;;;5.20;;
53652;SDS011;39553;52.954;5.932;2022-08-25T02:35:57;7.60;;;5.00;;
53652;SDS011;39553;52.954;5.932;2022-08-25T02:38:26;8.77;;;5.05;;
53652;SDS011;39553;52.954;5.932;2022-08-25T02:40:56;7.00;;;5.28;;
53652;SDS011;39553;52.954;5.932;2022-08-25T02:43:24;6.25;;;4.80;;
53652;SDS011;39553;52.954;5.932;2022-08-25T02:45:51;5.85;;;4.53;;
53652;SDS011;39553;52.954;5.932;2022-08-25T02:48:17;7.47;;;4.60;;
53652;SDS011;39553;52.954;5.932;2022-08-25T02:50:47;8.68;;;4.43;;
53652;SDS011;39553;52.954;5.932;2022-08-25T02:53:15;8.20;;;4.60;;
53652;SDS011;39553;52.954;5.932;2022-08-25T02:55:41;6.68;;;4.45;;
53652;SDS011;39553;52.954;5.932;2022-08-25T02:58:07;8.60;;;4.95;;
53652;SDS011;39553;52.954;5.932;2022-08-25T03:00:33;11.38;;;4.50;;
53652;SDS011;39553;52.954;5.932;2022-08-25T03:02:59;6.72;;;4.10;;
53652;SDS011;39553;52.954;5.932;2022-08-25T03:05:25;7.88;;;4.10;;
53652;SDS011;39553;52.954;5.932;2022-08-25T03:07:51;8.80;;;3.97;;
53652;SDS011;39553;52.954;5.932;2022-08-25T03:10:17;8.80;;;3.88;;
53652;SDS011;39553;52.954;5.932;2022-08-25T03:12:44;5.07;;;3.70;;
53652;SDS011;39553;52.954;5.932;2022-08-25T03:15:11;13.25;;;4.00;;
53652;SDS011;39553;52.954;5.932;2022-08-25T03:17:40;5.95;;;3.60;;
53652;SDS011;39553;52.954;5.932;2022-08-25T03:20:06;5.57;;;3.60;;
53652;SDS011;39553;52.954;5.932;2022-08-25T03:22:33;8.07;;;4.00;;
53652;SDS011;39553;52.954;5.932;2022-08-25T03:24:59;6.85;;;4.13;;
53652;SDS011;39553;52.954;5.932;2022-08-25T03:27:43;7.57;;;3.63;;
53652;SDS011;39553;52.954;5.932;2022-08-25T03:30:09;7.00;;;3.88;;
53652;SDS011;39553;52.954;5.932;2022-08-25T03:32:37;7.78;;;3.83;;
53652;SDS011;39553;52.954;5.932;2022-08-25T03:35:04;5.65;;;3.30;;
53652;SDS011;39553;52.954;5.932;2022-08-25T03:37:30;7.35;;;3.72;;
53652;SDS011;39553;52.954;5.932;2022-08-25T03:39:56;3.72;;;3.20;;
53652;SDS011;39553;52.954;5.932;2022-08-25T03:42:21;8.32;;;3.90;;
53652;SDS011;39553;52.954;5.932;2022-08-25T03:44:47;4.13;;;3.55;;
53652;SDS011;39553;52.954;5.932;2022-08-25T03:47:13;5.93;;;3.15;;
53652;SDS011;39553;52.954;5.932;2022-08-25T03:49:39;7.35;;;3.30;;
53652;SDS011;39553;52.954;5.932;2022-08-25T03:52:04;7.97;;;3.42;;
53652;SDS011;39553;52.954;5.932;2022-08-25T03:54:30;4.72;;;3.58;;
53652;SDS011;39553;52.954;5.932;2022-08-25T03:56:56;4.70;;;3.10;;
53652;SDS011;39553;52.954;5.932;2022-08-25T03:59:22;7.32;;;3.13;;
53652;SDS011;39553;52.954;5.932;2022-08-25T04:01:48;8.35;;;3.83;;
53652;SDS011;39553;52.954;5.932;2022-08-25T04:04:14;7.03;;;3.65;;
53652;SDS011;39553;52.954;5.932;2022-08-25T04:06:41;6.57;;;4.18;;
53652;SDS011;39553;52.954;5.932;2022-08-25T04:09:08;4.93;;;3.35;;
53652;SDS011;39553;52.954;5.932;2022-08-25T04:11:34;9.25;;;3.60;;
53652;SDS011;39553;52.954;5.932;2022-08-25T04:14:00;3.95;;;3.13;;
53652;SDS011;39553;52.954;5.932;2022-08-25T04:16:28;5.15;;;3.42;;
53652;SDS011;39553;52.954;5.932;2022-08-25T04:18:56;6.68;;;3.42;;
53652;SDS011;39553;52.954;5.932;2022-08-25T04:21:23;6.75;;;3.58;;
53652;SDS011;39553;52.954;5.932;2022-08-25T04:23:50;5.70;;;2.80;;
53652;SDS011;39553;52.954;5.932;2022-08-25T04:26:25;6.15;;;3.47;;
53652;SDS011;39553;52.954;5.932;2022-08-25T04:28:53;4.72;;;2.92;;
53652;SDS011;39553;52.954;5.932;2022-08-25T04:31:21;5.72;;;3.67;;
53652;SDS011;39553;52.954;5.932;2022-08-25T04:33:48;5.32;;;3.28;;
53652;SDS011;39553;52.954;5.932;2022-08-25T04:36:15;9.35;;;3.53;;
53652;SDS011;39553;52.954;5.932;2022-08-25T04:38:42;8.57;;;2.97;;
53652;SDS011;39553;52.954;5.932;2022-08-25T04:41:09;4.35;;;3.35;;
53652;SDS011;39553;52.954;5.932;2022-08-25T04:43:36;4.07;;;3.13;;
53652;SDS011;39553;52.954;5.932;2022-08-25T04:46:07;5.32;;;3.50;;
53652;SDS011;39553;52.954;5.932;2022-08-25T04:48:43;12.32;;;3.35;;
53652;SDS011;39553;52.954;5.932;2022-08-25T04:51:11;4.40;;;3.15;;
53652;SDS011;39553;52.954;5.932;2022-08-25T04:53:39;9.85;;;4.05;;
53652;SDS011;39553;52.954;5.932;2022-08-25T04:56:11;10.73;;;3.17;;
53652;SDS011;39553;52.954;5.932;2022-08-25T04:58:38;6.57;;;3.30;;
53652;SDS011;39553;52.954;5.932;2022-08-25T05:01:06;5.03;;;3.30;;
53652;SDS011;39553;52.954;5.932;2022-08-25T05:03:34;5.55;;;3.17;;
53652;SDS011;39553;52.954;5.932;2022-08-25T05:06:00;8.02;;;3.60;;
53652;SDS011;39553;52.954;5.932;2022-08-25T05:08:27;7.22;;;3.80;;
53652;SDS011;39553;52.954;5.932;2022-08-25T05:10:54;7.57;;;3.88;;
53652;SDS011;39553;52.954;5.932;2022-08-25T05:13:21;5.68;;;3.33;;
53652;SDS011;39553;52.954;5.932;2022-08-25T05:15:54;4.85;;;2.88;;
53652;SDS011;39553;52.954;5.932;2022-08-25T05:18:22;6.97;;;3.42;;
53652;SDS011;39553;52.954;5.932;2022-08-25T05:20:50;6.82;;;3.00;;
53652;SDS011;39553;52.954;5.932;2022-08-25T05:23:18;6.50;;;3.45;;
53652;SDS011;39553;52.954;5.932;2022-08-25T05:25:45;6.65;;;3.35;;
53652;SDS011;39553;52.954;5.932;2022-08-25T05:28:11;7.97;;;3.55;;
53652;SDS011;39553;52.954;5.932;2022-08-25T05:30:39;6.85;;;3.33;;
53652;SDS011;39553;52.954;5.932;2022-08-25T05:33:07;4.35;;;2.90;;
53652;SDS011;39553;52.954;5.932;2022-08-25T05:35:34;5.32;;;3.50;;
53652;SDS011;39553;52.954;5.932;2022-08-25T05:38:00;4.25;;;3.00;;
53652;SDS011;39553;52.954;5.932;2022-08-25T05:40:28;6.63;;;3.80;;
53652;SDS011;39553;52.954;5.932;2022-08-25T05:42:54;9.05;;;4.07;;
53652;SDS011;39553;52.954;5.932;2022-08-25T05:45:20;4.13;;;3.10;;
53652;SDS011;39553;52.954;5.932;2022-08-25T05:47:46;7.18;;;3.50;;
53652;SDS011;39553;52.954;5.932;2022-08-25T05:50:13;4.75;;;3.60;;
53652;SDS011;39553;52.954;5.932;2022-08-25T05:52:40;8.55;;;3.42;;
53652;SDS011;39553;52.954;5.932;2022-08-25T05:55:06;4.88;;;3.17;;
53652;SDS011;39553;52.954;5.932;2022-08-25T05:57:33;12.18;;;3.42;;
53652;SDS011;39553;52.954;5.932;2022-08-25T05:59:59;6.03;;;3.28;;
53652;SDS011;39553;52.954;5.932;2022-08-25T06:02:25;6.65;;;3.65;;
53652;SDS011;39553;52.954;5.932;2022-08-25T06:05:18;6.78;;;3.55;;
53652;SDS011;39553;52.954;5.932;2022-08-25T06:07:46;6.50;;;3.70;;
53652;SDS011;39553;52.954;5.932;2022-08-25T06:10:13;6.25;;;2.75;;
53652;SDS011;39553;52.954;5.932;2022-08-25T06:12:41;4.22;;;2.83;;
53652;SDS011;39553;52.954;5.932;2022-08-25T06:15:09;7.22;;;2.97;;
53652;SDS011;39553;52.954;5.932;2022-08-25T06:17:39;7.32;;;3.88;;
53652;SDS011;39553;52.954;5.932;2022-08-25T06:20:17;5.28;;;3.22;;
53652;SDS011;39553;52.954;5.932;2022-08-25T06:22:49;6.53;;;3.33;;
53652;SDS011;39553;52.954;5.932;2022-08-25T06:25:16;9.65;;;2.95;;
53652;SDS011;39553;52.954;5.932;2022-08-25T06:27:44;4.50;;;3.03;;
53652;SDS011;39553;52.954;5.932;2022-08-25T06:30:11;5.40;;;3.67;;
53652;SDS011;39553;52.954;5.932;2022-08-25T06:32:39;4.45;;;3.50;;
53652;SDS011;39553;52.954;5.932;2022-08-25T06:35:07;7.80;;;3.65;;
53652;SDS011;39553;52.954;5.932;2022-08-25T06:37:35;6.18;;;3.65;;
53652;SDS011;39553;52.954;5.932;2022-08-25T06:40:04;3.92;;;3.33;;
53652;SDS011;39553;52.954;5.932;2022-08-25T06:42:31;10.25;;;3.53;;
53652;SDS011;39553;52.954;5.932;2022-08-25T06:44:57;5.15;;;3.42;;
53652;SDS011;39553;52.954;5.932;2022-08-25T06:47:23;4.85;;;3.33;;
53652;SDS011;39553;52.954;5.932;2022-08-25T06:49:48;7.50;;;3.60;;
53652;SDS011;39553;52.954;5.932;2022-08-25T06:52:14;4.90;;;3.60;;
53652;SDS011;39553;52.954;5.932;2022-08-25T06:54:41;9.43;;;3.30;;
53652;SDS011;39553;52.954;5.932;2022-08-25T06:57:07;4.90;;;3.22;;
53652;SDS011;39553;52.954;5.932;2022-08-25T06:59:33;7.25;;;3.20;;
53652;SDS011;39553;52.954;5.932;2022-08-25T07:02:00;6.32;;;3.30;;
53652;SDS011;39553;52.954;5.932;2022-08-25T07:04:27;8.05;;;3.15;;
53652;SDS011;39553;52.954;5.932;2022-08-25T07:06:52;9.43;;;3.78;;
53652;SDS011;39553;52.954;5.932;2022-08-25T07:09:18;7.75;;;3.72;;
53652;SDS011;39553;52.954;5.932;2022-08-25T07:11:44;7.82;;;3.70;;
53652;SDS011;39553;52.954;5.932;2022-08-25T07:14:12;7.45;;;3.40;;
53652;SDS011;39553;52.954;5.932;2022-08-25T07:16:40;9.30;;;3.33;;
53652;SDS011;39553;52.954;5.932;2022-08-25T07:19:06;7.13;;;3.50;;
53652;SDS011;39553;52.954;5.932;2022-08-25T07:21:34;6.65;;;3.20;;
53652;SDS011;39553;52.954;5.932;2022-08-25T07:24:03;5.63;;;3.25;;
53652;SDS011;39553;52.954;5.932;2022-08-25T07:26:31;5.13;;;3.05;;
53652;SDS011;39553;52.954;5.932;2022-08-25T07:29:12;6.70;;;3.20;;
53652;SDS011;39553;52.954;5.932;2022-08-25T07:31:41;5.95;;;3.40;;
53652;SDS011;39553;52.954;5.932;2022-08-25T07:34:07;8.05;;;3.53;;
53652;SDS011;39553;52.954;5.932;2022-08-25T07:36:52;8.25;;;3.38;;
53652;SDS011;39553;52.954;5.932;2022-08-25T07:39:19;11.05;;;3.33;;
53652;SDS011;39553;52.954;5.932;2022-08-25T07:41:45;5.32;;;3.22;;
53652;SDS011;39553;52.954;5.932;2022-08-25T07:44:11;4.22;;;3.22;;
53652;SDS011;39553;52.954;5.932;2022-08-25T07:46:37;5.72;;;3.63;;
53652;SDS011;39553;52.954;5.932;2022-08-25T07:49:03;6.18;;;3.17;;
53652;SDS011;39553;52.954;5.932;2022-08-25T07:51:29;5.82;;;3.05;;
53652;SDS011;39553;52.954;5.932;2022-08-25T07:53:55;5.15;;;2.78;;
53652;SDS011;39553;52.954;5.932;2022-08-25T07:56:21;6.68;;;3.22;;
53652;SDS011;39553;52.954;5.932;2022-08-25T07:58:47;6.25;;;3.10;;
53652;SDS011;39553;52.954;5.932;2022-08-25T08:01:16;4.70;;;3.22;;
53652;SDS011;39553;52.954;5.932;2022-08-25T08:03:46;6.72;;;2.90;;
53652;SDS011;39553;52.954;5.932;2022-08-25T08:06:13;11.98;;;3.40;;
53652;SDS011;39553;52.954;5.932;2022-08-25T08:08:41;5.30;;;3.00;;
53652;SDS011;39553;52.954;5.932;2022-08-25T08:13:44;6.32;;;3.05;;
53652;SDS011;39553;52.954;5.932;2022-08-25T08:16:11;6.13;;;2.60;;
53652;SDS011;39553;52.954;5.932;2022-08-25T08:18:40;4.68;;;3.13;;
53652;SDS011;39553;52.954;5.932;2022-08-25T08:21:17;4.82;;;2.97;;
53652;SDS011;39553;52.954;5.932;2022-08-25T08:23:46;5.55;;;3.35;;
53652;SDS011;39553;52.954;5.932;2022-08-25T08:26:13;4.68;;;3.08;;
53652;SDS011;39553;52.954;5.932;2022-08-25T08:28:39;4.95;;;3.00;;
53652;SDS011;39553;52.954;5.932;2022-08-25T08:31:05;9.13;;;3.13;;
53652;SDS011;39553;52.954;5.932;2022-08-25T08:33:32;8.88;;;2.92;;
53652;SDS011;39553;52.954;5.932;2022-08-25T08:36:00;7.10;;;3.50;;
53652;SDS011;39553;52.954;5.932;2022-08-25T08:38:36;3.55;;;2.78;;
53652;SDS011;39553;52.954;5.932;2022-08-25T08:44:06;5.65;;;2.28;;
53652;SDS011;39553;52.954;5.932;2022-08-25T08:46:58;5.00;;;2.63;;
53652;SDS011;39553;52.954;5.932;2022-08-25T08:49:45;5.47;;;2.60;;
53652;SDS011;39553;52.954;5.932;2022-08-25T08:53:14;5.90;;;3.20;;
53652;SDS011;39553;52.954;5.932;2022-08-25T08:55:43;3.90;;;2.50;;
53652;SDS011;39553;52.954;5.932;2022-08-25T08:58:23;7.00;;;2.85;;
53652;SDS011;39553;52.954;5.932;2022-08-25T09:01:05;9.30;;;3.17;;
53652;SDS011;39553;52.954;5.932;2022-08-25T09:03:35;7.45;;;2.83;;
53652;SDS011;39553;52.954;5.932;2022-08-25T09:06:19;5.72;;;2.22;;
53652;SDS011;39553;52.954;5.932;2022-08-25T09:08:49;6.43;;;2.50;;
53652;SDS011;39553;52.954;5.932;2022-08-25T09:11:27;3.72;;;2.72;;
53652;SDS011;39553;52.954;5.932;2022-08-25T09:27:50;6.20;;;2.72;;
53652;SDS011;39553;52.954;5.932;2022-08-25T09:31:08;3.35;;;2.22;;
53652;SDS011;39553;52.954;5.932;2022-08-25T09:33:28;3.55;;;1.90;;
53652;SDS011;39553;52.954;5.932;2022-08-25T09:35:55;6.25;;;2.38;;
53652;SDS011;39553;52.954;5.932;2022-08-25T09:38:21;6.60;;;2.33;;
53652;SDS011;39553;52.954;5.932;2022-08-25T09:40:49;5.13;;;2.67;;
53652;SDS011;39553;52.954;5.932;2022-08-25T09:46:15;4.32;;;2.63;;
53652;SDS011;39553;52.954;5.932;2022-08-25T09:48:50;5.05;;;2.38;;
53652;SDS011;39553;52.954;5.932;2022-08-25T09:59:25;5.35;;;2.10;;
53652;SDS011;39553;52.954;5.932;2022-08-25T10:02:00;6.00;;;2.08;;
53652;SDS011;39553;52.954;5.932;2022-08-25T10:04:47;4.25;;;1.80;;
53652;SDS011;39553;52.954;5.932;2022-08-25T10:07:29;4.13;;;2.33;;
53652;SDS011;39553;52.954;5.932;2022-08-25T10:10:02;4.63;;;2.20;;
53652;SDS011;39553;52.954;5.932;2022-08-25T10:12:41;5.07;;;1.70;;
53652;SDS011;39553;52.954;5.932;2022-08-25T10:15:25;3.88;;;1.85;;
53652;SDS011;39553;52.954;5.932;2022-08-25T10:21:06;3.30;;;2.13;;
53652;SDS011;39553;52.954;5.932;2022-08-25T10:23:46;6.90;;;1.90;;
53652;SDS011;39553;52.954;5.932;2022-08-25T10:26:25;4.65;;;1.75;;
53652;SDS011;39553;52.954;5.932;2022-08-25T10:34:32;3.85;;;1.77;;
53652;SDS011;39553;52.954;5.932;2022-08-25T10:37:26;5.35;;;1.75;;
53652;SDS011;39553;52.954;5.932;2022-08-25T10:45:12;2.92;;;1.90;;
53652;SDS011;39553;52.954;5.932;2022-08-25T10:56:19;3.65;;;1.92;;
53652;SDS011;39553;52.954;5.932;2022-08-25T11:09:32;2.45;;;1.67;;
53652;SDS011;39553;52.954;5.932;2022-08-25T11:12:07;3.95;;;2.10;;
53652;SDS011;39553;52.954;5.932;2022-08-25T11:17:23;4.97;;;2.45;;
53652;SDS011;39553;52.954;5.932;2022-08-25T11:20:09;3.50;;;1.95;;
53652;SDS011;39553;52.954;5.932;2022-08-25T11:22:51;2.20;;;1.70;;
53652;SDS011;39553;52.954;5.932;2022-08-25T11:25:35;3.42;;;2.08;;
53652;SDS011;39553;52.954;5.932;2022-08-25T11:30:40;3.03;;;1.98;;
53652;SDS011;39553;52.954;5.932;2022-08-25T11:33:11;3.67;;;2.10;;
53652;SDS011;39553;52.954;5.932;2022-08-25T11:35:48;3.72;;;1.95;;
53652;SDS011;39553;52.954;5.932;2022-08-25T11:43:43;7.43;;;2.33;;
53652;SDS011;39553;52.954;5.932;2022-08-25T11:49:43;2.38;;;1.98;;
53652;SDS011;39553;52.954;5.932;2022-08-25T11:52:41;9.27;;;2.58;;
53652;SDS011;39553;52.954;5.932;2022-08-25T11:57:39;4.38;;;2.50;;
53652;SDS011;39553;52.954;5.932;2022-08-25T12:00:09;7.53;;;2.40;;
53652;SDS011;39553;52.954;5.932;2022-08-25T12:02:48;4.70;;;2.50;;
53652;SDS011;39553;52.954;5.932;2022-08-25T12:21:48;6.70;;;2.50;;
53652;SDS011;39553;52.954;5.932;2022-08-25T12:24:15;4.50;;;2.50;;
53652;SDS011;39553;52.954;5.932;2022-08-25T12:26:55;5.40;;;3.22;;
53652;SDS011;39553;52.954;5.932;2022-08-25T12:32:17;2.78;;;2.25;;
53652;SDS011;39553;52.954;5.932;2022-08-25T12:40:30;4.40;;;2.97;;
53652;SDS011;39553;52.954;5.932;2022-08-25T12:51:26;4.65;;;2.53;;
53652;SDS011;39553;52.954;5.932;2022-08-25T12:57:00;4.47;;;2.20;;
53652;SDS011;39553;52.954;5.932;2022-08-25T12:59:37;3.53;;;2.10;;
53652;SDS011;39553;52.954;5.932;2022-08-25T13:08:53;3.35;;;2.35;;
53652;SDS011;39553;52.954;5.932;2022-08-25T13:12:18;6.28;;;2.30;;
53652;SDS011;39553;52.954;5.932;2022-08-25T13:14:42;3.03;;;2.47;;
53652;SDS011;39553;52.954;5.932;2022-08-25T13:17:10;2.95;;;2.17;;
53652;SDS011;39553;52.954;5.932;2022-08-25T13:19:48;3.22;;;2.30;;
53652;SDS011;39553;52.954;5.932;2022-08-25T13:22:14;5.10;;;2.25;;
53652;SDS011;39553;52.954;5.932;2022-08-25T13:24:43;3.20;;;2.40;;
53652;SDS011;39553;52.954;5.932;2022-08-25T13:27:17;3.05;;;2.08;;
53652;SDS011;39553;52.954;5.932;2022-08-25T13:29:52;6.65;;;2.22;;
53652;SDS011;39553;52.954;5.932;2022-08-25T13:32:53;5.68;;;2.45;;
53652;SDS011;39553;52.954;5.932;2022-08-25T13:35:14;3.17;;;2.10;;
53652;SDS011;39553;52.954;5.932;2022-08-25T13:37:48;4.30;;;1.95;;
53652;SDS011;39553;52.954;5.932;2022-08-25T13:40:20;3.63;;;2.03;;
53652;SDS011;39553;52.954;5.932;2022-08-25T13:42:49;3.08;;;2.05;;
53652;SDS011;39553;52.954;5.932;2022-08-25T13:45:23;2.85;;;2.10;;
53652;SDS011;39553;52.954;5.932;2022-08-25T13:47:53;3.45;;;2.33;;
53652;SDS011;39553;52.954;5.932;2022-08-25T13:55:46;3.85;;;2.13;;
53652;SDS011;39553;52.954;5.932;2022-08-25T13:58:17;3.63;;;2.20;;
53652;SDS011;39553;52.954;5.932;2022-08-25T14:03:32;3.72;;;2.25;;
53652;SDS011;39553;52.954;5.932;2022-08-25T14:14:03;5.65;;;2.42;;
53652;SDS011;39553;52.954;5.932;2022-08-25T14:16:36;4.25;;;2.10;;
53652;SDS011;39553;52.954;5.932;2022-08-25T14:19:04;4.15;;;1.80;;
53652;SDS011;39553;52.954;5.932;2022-08-25T14:21:38;4.63;;;2.13;;
53652;SDS011;39553;52.954;5.932;2022-08-25T14:24:04;5.63;;;2.25;;
53652;SDS011;39553;52.954;5.932;2022-08-25T14:26:30;2.63;;;1.98;;
53652;SDS011;39553;52.954;5.932;2022-08-25T14:28:56;4.78;;;1.98;;
53652;SDS011;39553;52.954;5.932;2022-08-25T14:31:23;6.30;;;2.05;;
53652;SDS011;39553;52.954;5.932;2022-08-25T14:33:58;3.80;;;2.40;;
53652;SDS011;39553;52.954;5.932;2022-08-25T14:36:30;3.60;;;2.08;;
53652;SDS011;39553;52.954;5.932;2022-08-25T14:38:57;5.57;;;2.08;;
53652;SDS011;39553;52.954;5.932;2022-08-25T14:41:24;3.17;;;2.20;;
53652;SDS011;39553;52.954;5.932;2022-08-25T14:43:50;7.88;;;1.88;;
53652;SDS011;39553;52.954;5.932;2022-08-25T14:46:21;4.00;;;2.03;;
53652;SDS011;39553;52.954;5.932;2022-08-25T14:48:52;2.75;;;1.80;;
53652;SDS011;39553;52.954;5.932;2022-08-25T14:51:22;3.45;;;1.88;;
53652;SDS011;39553;52.954;5.932;2022-08-25T14:53:49;2.25;;;1.92;;
53652;SDS011;39553;52.954;5.932;2022-08-25T14:56:17;2.60;;;1.73;;
53652;SDS011;39553;52.954;5.932;2022-08-25T14:58:44;4.07;;;1.75;;
53652;SDS011;39553;52.954;5.932;2022-08-25T15:01:10;3.90;;;1.90;;
53652;SDS011;39553;52.954;5.932;2022-08-25T15:03:39;3.20;;;1.75;;
53652;SDS011;39553;52.954;5.932;2022-08-25T15:06:08;4.82;;;1.60;;
53652;SDS011;39553;52.954;5.932;2022-08-25T15:08:37;2.90;;;1.58;;
53652;SDS011;39553;52.954;5.932;2022-08-25T15:11:22;3.60;;;1.70;;
53652;SDS011;39553;52.954;5.932;2022-08-25T15:13:52;5.18;;;1.80;;
53652;SDS011;39553;52.954;5.932;2022-08-25T15:16:23;2.78;;;1.80;;
53652;SDS011;39553;52.954;5.932;2022-08-25T15:19:02;3.35;;;1.70;;
53652;SDS011;39553;52.954;5.932;2022-08-25T15:21:30;4.25;;;1.80;;
53652;SDS011;39553;52.954;5.932;2022-08-25T15:23:56;3.40;;;1.65;;
53652;SDS011;39553;52.954;5.932;2022-08-25T15:26:22;2.63;;;1.48;;
53652;SDS011;39553;52.954;5.932;2022-08-25T15:28:49;4.05;;;1.70;;
53652;SDS011;39553;52.954;5.932;2022-08-25T15:31:16;3.92;;;1.83;;
53652;SDS011;39553;52.954;5.932;2022-08-25T15:33:43;2.65;;;1.90;;
53652;SDS011;39553;52.954;5.932;2022-08-25T15:36:10;3.92;;;1.63;;
53652;SDS011;39553;52.954;5.932;2022-08-25T15:38:39;7.20;;;2.20;;
53652;SDS011;39553;52.954;5.932;2022-08-25T15:41:06;2.70;;;2.17;;
53652;SDS011;39553;52.954;5.932;2022-08-25T15:43:33;3.22;;;1.90;;
53652;SDS011;39553;52.954;5.932;2022-08-25T15:45:59;3.03;;;2.30;;
53652;SDS011;39553;52.954;5.932;2022-08-25T15:48:25;2.80;;;2.00;;
53652;SDS011;39553;52.954;5.932;2022-08-25T15:50:54;4.13;;;2.00;;
53652;SDS011;39553;52.954;5.932;2022-08-25T15:53:22;3.63;;;1.85;;
53652;SDS011;39553;52.954;5.932;2022-08-25T15:55:50;3.83;;;2.00;;
53652;SDS011;39553;52.954;5.932;2022-08-25T15:58:17;3.25;;;2.10;;
53652;SDS011;39553;52.954;5.932;2022-08-25T16:00:43;3.83;;;2.10;;
53652;SDS011;39553;52.954;5.932;2022-08-25T16:03:10;2.65;;;2.10;;
53652;SDS011;39553;52.954;5.932;2022-08-25T16:05:39;4.55;;;2.00;;
53652;SDS011;39553;52.954;5.932;2022-08-25T16:08:07;5.78;;;2.38;;
53652;SDS011;39553;52.954;5.932;2022-08-25T16:10:36;2.50;;;2.00;;
53652;SDS011;39553;52.954;5.932;2022-08-25T16:13:04;3.28;;;2.00;;
53652;SDS011;39553;52.954;5.932;2022-08-25T16:15:31;2.55;;;1.63;;
53652;SDS011;39553;52.954;5.932;2022-08-25T16:17:57;3.78;;;1.98;;
53652;SDS011;39553;52.954;5.932;2022-08-25T16:20:24;3.85;;;2.22;;
53652;SDS011;39553;52.954;5.932;2022-08-25T16:22:54;4.60;;;1.90;;
53652;SDS011;39553;52.954;5.932;2022-08-25T16:25:20;5.38;;;2.33;;
53652;SDS011;39553;52.954;5.932;2022-08-25T16:27:46;5.00;;;2.30;;
53652;SDS011;39553;52.954;5.932;2022-08-25T16:30:12;4.03;;;2.35;;
53652;SDS011;39553;52.954;5.932;2022-08-25T16:32:38;3.50;;;2.30;;
53652;SDS011;39553;52.954;5.932;2022-08-25T16:35:05;4.40;;;2.20;;
53652;SDS011;39553;52.954;5.932;2022-08-25T16:37:32;4.63;;;1.70;;
53652;SDS011;39553;52.954;5.932;2022-08-25T16:39:59;2.80;;;2.03;;
53652;SDS011;39553;52.954;5.932;2022-08-25T16:42:25;5.70;;;2.42;;
53652;SDS011;39553;52.954;5.932;2022-08-25T16:44:51;3.72;;;2.20;;
53652;SDS011;39553;52.954;5.932;2022-08-25T16:47:17;2.78;;;2.15;;
53652;SDS011;39553;52.954;5.932;2022-08-25T16:49:43;6.80;;;2.35;;
53652;SDS011;39553;52.954;5.932;2022-08-25T16:52:09;2.85;;;2.10;;
53652;SDS011;39553;52.954;5.932;2022-08-25T16:54:54;2.20;;;2.00;;
53652;SDS011;39553;52.954;5.932;2022-08-25T16:57:40;4.10;;;2.40;;
53652;SDS011;39553;52.954;5.932;2022-08-25T17:00:11;4.55;;;2.33;;
53652;SDS011;39553;52.954;5.932;2022-08-25T17:02:41;5.65;;;3.05;;
53652;SDS011;39553;52.954;5.932;2022-08-25T17:05:07;4.28;;;2.60;;
53652;SDS011;39553;52.954;5.932;2022-08-25T17:07:34;4.30;;;2.55;;
53652;SDS011;39553;52.954;5.932;2022-08-25T17:10:02;3.50;;;2.40;;
53652;SDS011;39553;52.954;5.932;2022-08-25T17:12:29;4.47;;;2.50;;
53652;SDS011;39553;52.954;5.932;2022-08-25T17:14:54;5.03;;;2.30;;
53652;SDS011;39553;52.954;5.932;2022-08-25T17:17:20;2.15;;;1.92;;
53652;SDS011;39553;52.954;5.932;2022-08-25T17:19:46;3.88;;;2.67;;
53652;SDS011;39553;52.954;5.932;2022-08-25T17:22:12;3.42;;;2.47;;